createdAt,value
2022-11-24T07:26:24.819Z,3397
2022-11-24T07:31:07.213Z,5587
2022-11-24T07:35:48.923Z,5938
2022-11-24T07:40:31.347Z,6152
2022-11-24T07:49:56.383Z,5728
2022-11-24T07:54:38.818Z,5412
2022-11-24T07:59:21.322Z,5178
2022-11-24T08:04:03.841Z,6436
2022-11-24T08:08:46.278Z,4309
2022-11-24T08:13:28.783Z,6683
2022-11-24T08:18:11.307Z,7519
2022-11-24T08:22:53.726Z,9180
2022-11-24T08:27:36.237Z,10333
2022-11-24T08:32:18.763Z,9123
2022-11-24T08:37:01.271Z,9403
2022-11-24T08:41:43.698Z,9570
2022-11-24T08:46:26.410Z,9720
2022-11-24T08:51:08.638Z,12901
2022-11-24T08:55:51.218Z,9087
2022-11-24T09:00:33.678Z,10127
2022-11-24T09:05:16.107Z,9238
2022-11-24T09:09:58.647Z,10176
2022-11-24T09:14:41.192Z,8981
2022-11-24T09:19:23.608Z,8252
2022-11-24T09:24:06.267Z,11096
2022-11-24T09:28:48.594Z,13979
2022-11-24T09:33:31.077Z,14244
2022-11-24T09:38:13.529Z,14112
2022-11-24T09:42:56.096Z,12439
2022-11-24T09:47:38.472Z,14045
2022-11-24T09:52:21.019Z,12226
2022-11-24T09:57:03.498Z,7465
2022-11-24T10:01:46.008Z,7342
2022-11-24T10:06:28.443Z,4967
2022-11-24T10:11:10.927Z,4163
2022-11-24T10:15:53.382Z,6709
2022-11-24T10:20:35.953Z,10279
2022-11-24T10:25:18.320Z,11076
2022-11-24T10:30:00.855Z,9171
2022-11-24T10:34:43.346Z,8094
2022-11-24T10:39:25.790Z,9443
2022-11-24T10:44:08.294Z,12626
2022-11-24T10:48:50.813Z,7395
2022-11-24T10:53:33.251Z,6059
2022-11-24T10:58:15.769Z,6387
2022-11-24T11:02:58.272Z,5453
2022-11-24T11:12:23.210Z,9041
2022-11-24T11:17:05.723Z,7439
2022-11-24T11:21:48.244Z,5538
2022-11-24T11:26:30.684Z,6385
2022-11-24T11:31:13.185Z,8599
2022-11-24T11:35:55.701Z,9567
2022-11-24T11:40:38.127Z,12989
2022-11-24T11:45:20.640Z,10216
2022-11-24T11:50:03.172Z,8385
2022-11-24T11:54:45.658Z,9883
2022-11-24T11:59:28.293Z,9358
2022-11-24T12:04:10.614Z,6622
2022-11-24T12:08:53.035Z,6415
2022-11-24T12:13:35.552Z,7434
2022-11-24T12:18:18.081Z,7224
2022-11-24T12:23:00.596Z,7425
2022-11-24T12:27:43.197Z,8678
2022-11-24T12:32:25.640Z,6767
2022-11-24T12:37:08.028Z,7888
2022-11-24T12:41:50.475Z,15638
2022-11-24T12:46:32.991Z,12211
2022-11-24T12:51:15.423Z,13142
2022-11-24T12:55:58.089Z,15537
2022-11-24T13:00:40.517Z,14821
2022-11-24T13:05:22.967Z,15911
2022-11-24T13:10:05.554Z,13017
2022-11-24T13:14:48.115Z,9606
2022-11-24T13:19:30.499Z,8057
2022-11-24T13:28:55.489Z,8244
2022-11-24T13:33:37.920Z,8231
2022-11-24T13:38:20.467Z,4769
2022-11-24T13:43:02.888Z,4358
2022-11-24T13:47:45.465Z,3501
2022-11-24T13:52:27.916Z,4615
2022-11-24T13:57:10.391Z,5596
2022-11-24T14:01:52.875Z,5769
2022-11-24T14:06:35.361Z,5272
2022-11-24T14:11:17.788Z,5241
2022-11-24T14:16:00.344Z,4638
2022-11-24T14:20:42.841Z,4282
2022-11-24T14:25:25.286Z,4005
2022-11-24T14:30:07.614Z,3279
2022-11-24T14:34:50.230Z,2894
2022-11-24T14:39:32.731Z,2477
2022-11-24T14:44:15.291Z,2110
2022-11-24T14:48:57.753Z,1774
2022-11-24T14:53:40.133Z,1789
2022-11-24T14:58:22.705Z,1456
2022-11-24T15:03:05.221Z,1030
2022-11-24T15:07:47.621Z,1040
